Paynesville, MN

8:39 AM CDT on April 19, 2015 (GMT -0500)
Sauk Centre | | Change Station
CLOSE
Current Station
Airport
Location: Sauk Centre,
Elevation: 1240 ft
Nearby Weather Stations

Elev 1240 ft 45.71 °N, 94.93 °W | Updated 7 minutes ago

Mostly Cloudy
Mostly Cloudy
50 °F
Feels Like 50 °F
N
9
Wind Variable Wind from West

Today
High -- | Low -- °F
--% Chance of Precip.
Yesterday
High -- | Low -- °F
Precip. -- in
6:26 AM 8:09 PM
New Moon, 1% visible
Pressure 29.65 in
Visibility 10.0 miles
Clouds Scattered Clouds 400 ft
Overcast 800 ft
Dew Point 49 °F
Humidity 97%
Rainfall 0.09 in
Snow Depth Not available.
UV 0 out of 12
Pollen 2.50 out of 12
Air Quality Not available.
Flu Activity Local Activity
METAR KD39 191332Z AUTO 26008KT 10SM SCT004 OVC008 10/09 A2965 RMK AO2 T00970093

More Conditions Fewer Conditions

Pressure 29.65 in
Visibility 10.0 miles
Clouds Scattered Clouds 400 ft
Overcast 800 ft
Dew Point 49 °F
Humidity 97%
Rainfall 0.09 in
Snow Depth Not available.
UV 0 out of 12
Pollen 2.50 out of 12
Air Quality Not available.
Flu Activity Local Activity
METAR KD39 191332Z AUTO 26008KT 10SM SCT004 OVC008 10/09 A2965 RMK AO2 T00970093

More Conditions Fewer Conditions

10-Day Weather Forecast

Almanac

Astronomy

Apr. 19, 2015 Rise Set
Actual Time
Civil Twilight
Nautical Twilight
Astronomical Twilight
Moon
Length of Visible Light
Length of Day
Tomorrow will be .
, % of the Moon is Illuminated

Today's Extremes

State Highs State Lows

Community

WunderPhotos

Upload Photos

1,814,795 photos uploaded!

WunderBlogs® & News

Nearby

Air Quality

  Air Quality AQ Index Pollutant
Not available.

Snow Depth

Station Depth Elevation

Earthquake Activity

City Distance Mag. Time & Date
Minimum magnitude displayed is 2.5.

Coastal Water Temperatures

Place Temperature

Stations

Nearby Weather Stations

Station Location Temp. Windchill Dew Point Humidity Wind Precip. Elev Updated Type